createdAt,value
2019-02-23T00:00:27.521Z,103720.22
2019-02-23T00:03:02.376Z,103713.68
2019-02-23T00:05:35.629Z,103711.28
2019-02-23T00:08:08.869Z,103707.45
2019-02-23T00:10:42.115Z,103709.16
2019-02-23T00:13:15.346Z,103700.56
2019-02-23T00:15:48.897Z,103707.81
2019-02-23T00:18:22.130Z,103706.98
2019-02-23T00:20:55.373Z,103709.52
2019-02-23T00:23:28.611Z,103701.20
2019-02-23T00:26:01.861Z,103703.93
2019-02-23T00:28:35.100Z,103701.53
2019-02-23T00:31:08.342Z,103709.84
2019-02-23T00:33:41.576Z,103699.95
2019-02-23T00:36:14.831Z,103697.64
2019-02-23T00:38:48.133Z,103703.65
2019-02-23T00:41:21.386Z,103703.49
2019-02-23T00:43:54.624Z,103709.97
2019-02-23T00:46:28.837Z,103714.02
2019-02-23T00:49:02.076Z,103714.36
2019-02-23T00:51:35.338Z,103710.20
2019-02-23T00:54:08.571Z,103718.91
2019-02-23T00:56:41.831Z,103713.38
2019-02-23T00:59:15.064Z,103708.48
2019-02-23T01:01:48.320Z,103708.91
2019-02-23T01:04:21.550Z,103712.31
2019-02-23T01:06:54.804Z,103704.06
2019-02-23T01:09:28.053Z,103709.91
2019-02-23T01:12:01.306Z,103704.73
2019-02-23T01:14:34.544Z,103703.02
2019-02-23T01:17:07.787Z,103705.48
2019-02-23T01:19:47.832Z,103708.48
2019-02-23T01:22:15.986Z,103697.49
2019-02-23T01:24:50.282Z,103695.44
2019-02-23T01:27:23.544Z,103702.02
2019-02-23T01:29:56.785Z,103706.69
2019-02-23T01:32:30.034Z,103701.85
2019-02-23T01:35:04.115Z,103697.08
2019-02-23T01:37:37.371Z,103704.85
2019-02-23T01:40:10.605Z,103705.27
2019-02-23T01:42:43.861Z,103698.31
2019-02-23T01:45:17.090Z,103697.42
2019-02-23T01:47:50.345Z,103695.16
2019-02-23T01:50:23.579Z,103690.09
2019-02-23T01:52:56.826Z,103688.23
2019-02-23T01:55:30.055Z,103685.52
2019-02-23T01:58:03.306Z,103691.45
2019-02-23T02:00:36.542Z,103682.86
2019-02-23T02:03:09.805Z,103681.09
2019-02-23T02:05:43.047Z,103685.45
2019-02-23T02:08:16.288Z,103692.27
2019-02-23T02:10:49.521Z,103689.11
2019-02-23T02:13:22.757Z,103687.41
2019-02-23T02:15:55.986Z,103687.87
2019-02-23T02:18:29.234Z,103683.04
2019-02-23T02:21:02.462Z,103692.11
2019-02-23T02:23:35.708Z,103683.45
2019-02-23T02:26:08.948Z,103673.69
2019-02-23T02:28:42.207Z,103666.39
2019-02-23T02:31:15.449Z,103670.15
2019-02-23T02:34:06.367Z,103668.25
2019-02-23T02:36:39.595Z,103652.20
2019-02-23T02:39:13.199Z,103670.73
2019-02-23T02:41:46.452Z,103673.08
2019-02-23T02:44:19.700Z,103670.43
2019-02-23T02:46:52.923Z,103668.25
2019-02-23T02:49:26.178Z,103664.67
2019-02-23T02:51:59.409Z,103661.14
2019-02-23T02:54:32.665Z,103663.19
2019-02-23T02:57:05.907Z,103665.02
2019-02-23T02:59:39.151Z,103664.84
2019-02-23T03:02:12.389Z,103664.84
2019-02-23T03:04:45.634Z,103659.50
2019-02-23T03:07:18.875Z,103659.97
2019-02-23T03:09:52.122Z,103657.19
2019-02-23T03:12:25.349Z,103650.31
2019-02-23T03:14:58.595Z,103655.96
2019-02-23T03:17:31.831Z,103654.19
2019-02-23T03:20:06.826Z,103660.66
2019-02-23T03:22:40.058Z,103659.72
2019-02-23T03:25:13.303Z,103652.26
2019-02-23T03:27:46.535Z,103655.61
2019-02-23T03:30:19.785Z,103661.84
2019-02-23T03:32:53.090Z,103662.83
2019-02-23T03:35:26.329Z,103658.13
2019-02-23T03:37:59.551Z,103651.11
2019-02-23T03:40:32.801Z,103658.06
2019-02-23T03:43:06.028Z,103653.61
2019-02-23T03:45:39.291Z,103657.02
2019-02-23T03:48:12.528Z,103660.77
2019-02-23T03:50:49.186Z,103660.08
2019-02-23T03:53:20.702Z,103664.38
2019-02-23T03:55:53.956Z,103662.19
2019-02-23T03:58:27.191Z,103653.47
2019-02-23T04:01:00.450Z,103659.00
2019-02-23T04:03:33.681Z,103659.30
2019-02-23T04:06:06.925Z,103654.00
2019-02-23T04:08:40.164Z,103656.11
2019-02-23T04:11:13.419Z,103661.11
2019-02-23T04:13:46.651Z,103655.72
2019-02-23T04:16:19.898Z,103659.60
2019-02-23T04:18:53.148Z,103658.30
2019-02-23T04:21:26.387Z,103666.08
2019-02-23T04:24:00.691Z,103664.44
2019-02-23T04:26:33.941Z,103666.65
2019-02-23T04:29:07.174Z,103666.95
2019-02-23T04:31:40.434Z,103665.66
2019-02-23T04:34:13.654Z,103671.94
2019-02-23T04:36:46.901Z,103667.17
2019-02-23T04:39:20.131Z,103669.55
2019-02-23T04:41:53.387Z,103668.01
2019-02-23T04:44:27.591Z,103672.09
2019-02-23T04:47:00.846Z,103673.31
2019-02-23T04:49:34.079Z,103672.84
2019-02-23T04:52:07.326Z,103671.89
2019-02-23T04:54:40.560Z,103666.23
2019-02-23T04:57:13.811Z,103670.02
2019-02-23T04:59:47.067Z,103669.00
2019-02-23T05:02:20.293Z,103673.30
2019-02-23T05:04:53.525Z,103675.89
2019-02-23T05:07:26.771Z,103681.77
2019-02-23T05:10:00.012Z,103684.15
2019-02-23T05:12:33.263Z,103682.13
2019-02-23T05:15:08.533Z,103673.55
2019-02-23T05:17:41.774Z,103679.72
2019-02-23T05:20:15.009Z,103668.55
2019-02-23T05:22:48.266Z,103671.00
2019-02-23T05:25:21.482Z,103670.91
2019-02-23T05:27:54.741Z,103675.07
2019-02-23T05:30:27.979Z,103674.31
2019-02-23T05:33:01.216Z,103679.97
2019-02-23T05:35:34.445Z,103685.44
2019-02-23T05:38:07.693Z,103686.51
2019-02-23T05:40:40.920Z,103693.22
2019-02-23T05:43:14.175Z,103689.09
2019-02-23T05:45:47.406Z,103697.91
2019-02-23T05:48:20.657Z,103691.52
2019-02-23T05:50:53.890Z,103701.58
2019-02-23T05:53:27.133Z,103691.96
2019-02-23T05:56:00.362Z,103690.94
2019-02-23T05:58:33.608Z,103693.04
2019-02-23T06:01:06.839Z,103699.44
2019-02-23T06:03:40.392Z,103690.36
2019-02-23T06:06:13.628Z,103698.63
2019-02-23T06:08:46.947Z,103697.38
2019-02-23T06:11:20.183Z,103695.20
2019-02-23T06:13:53.502Z,103698.38
2019-02-23T06:16:26.719Z,103698.89
2019-02-23T06:18:59.971Z,103696.97
2019-02-23T06:21:33.208Z,103705.98
2019-02-23T06:24:06.466Z,103695.20
2019-02-23T06:26:39.698Z,103692.13
2019-02-23T06:29:12.959Z,103697.80
2019-02-23T06:31:46.185Z,103699.98
2019-02-23T06:34:19.432Z,103695.67
2019-02-23T06:36:52.666Z,103692.13
2019-02-23T06:39:25.913Z,103694.11
2019-02-23T06:41:59.148Z,103686.12
2019-02-23T06:44:32.402Z,103686.95
2019-02-23T06:47:05.646Z,103687.48
2019-02-23T06:49:38.901Z,103694.28
2019-02-23T06:52:12.508Z,103694.11
2019-02-23T06:54:45.752Z,103697.29
2019-02-23T06:57:18.991Z,103695.84
2019-02-23T06:59:52.250Z,103696.88
2019-02-23T07:02:25.488Z,103700.05
2019-02-23T07:04:58.735Z,103694.59
2019-02-23T07:07:31.977Z,103701.39
2019-02-23T07:10:08.321Z,103698.60
2019-02-23T07:12:41.570Z,103707.42
2019-02-23T07:15:14.812Z,103707.47
2019-02-23T07:17:48.045Z,103713.13
2019-02-23T07:20:21.284Z,103658.05
2019-02-23T07:22:54.523Z,103719.16
2019-02-23T07:25:27.765Z,103719.67
2019-02-23T07:28:00.993Z,103721.80
2019-02-23T07:30:34.240Z,103719.77
2019-02-23T07:33:07.476Z,103723.36
2019-02-23T07:35:40.731Z,103725.13
2019-02-23T07:38:13.958Z,103718.88
2019-02-23T07:40:47.202Z,103723.46
2019-02-23T07:43:20.437Z,103724.66
2019-02-23T07:45:53.673Z,103727.05
2019-02-23T07:48:26.910Z,103725.33
2019-02-23T07:51:00.145Z,103720.95
2019-02-23T07:53:33.380Z,103720.91
2019-02-23T07:56:06.621Z,103727.09
2019-02-23T07:58:39.858Z,103723.88
2019-02-23T08:01:14.081Z,103720.34
2019-02-23T08:07:07.653Z,103719.08
2019-02-23T08:09:41.854Z,103708.50
2019-02-23T08:12:15.117Z,103709.55
2019-02-23T08:14:48.355Z,103713.44
2019-02-23T08:17:21.595Z,103709.40
2019-02-23T08:19:54.830Z,103706.39
2019-02-23T08:22:37.056Z,103703.27
2019-02-23T08:25:04.780Z,103704.70
2019-02-23T08:27:38.039Z,103700.98
2019-02-23T08:30:15.106Z,103702.19
2019-02-23T08:32:48.357Z,103703.48
2019-02-23T08:35:21.593Z,103700.77
2019-02-23T08:37:54.836Z,103699.05
2019-02-23T08:40:28.069Z,103699.66
2019-02-23T08:43:01.302Z,103693.15
2019-02-23T08:45:34.535Z,103690.69
2019-02-23T08:48:07.791Z,103693.05
2019-02-23T08:50:41.025Z,103695.19
2019-02-23T08:53:14.279Z,103693.78
2019-02-23T08:55:47.518Z,103698.02
2019-02-23T08:58:20.776Z,103703.91
2019-02-23T09:00:54.000Z,103701.91
2019-02-23T09:03:27.245Z,103695.45
2019-02-23T09:06:00.469Z,103697.29
2019-02-23T09:08:33.709Z,103698.81
2019-02-23T09:11:06.944Z,103690.58
2019-02-23T09:13:40.175Z,103689.86
2019-02-23T09:16:13.418Z,103690.84
2019-02-23T09:18:47.621Z,103693.94
2019-02-23T09:21:20.850Z,103695.60
2019-02-23T09:23:54.102Z,103691.98
2019-02-23T09:26:27.334Z,103689.28
2019-02-23T09:29:00.572Z,103685.85
2019-02-23T09:31:33.802Z,103692.50
2019-02-23T09:34:07.050Z,103691.77
2019-02-23T09:36:40.276Z,103689.44
2019-02-23T09:39:13.536Z,103689.02
2019-02-23T09:41:46.773Z,103692.45
2019-02-23T09:44:20.048Z,103694.54
2019-02-23T09:46:53.250Z,103693.64
2019-02-23T09:49:26.500Z,103698.02
2019-02-23T09:51:59.729Z,103699.09
2019-02-23T09:54:32.996Z,103697.84
2019-02-23T09:57:06.207Z,103700.95
2019-02-23T09:59:40.277Z,103697.52
2019-02-23T10:02:13.585Z,103696.21
2019-02-23T10:04:46.831Z,103698.20
2019-02-23T10:07:20.061Z,103694.50
2019-02-23T10:09:53.303Z,103685.33
2019-02-23T10:12:26.537Z,103690.20
2019-02-23T10:14:59.786Z,103688.66
2019-02-23T10:17:33.027Z,103690.43
2019-02-23T10:20:09.069Z,103689.10
2019-02-23T10:22:42.309Z,103685.11
2019-02-23T10:25:15.561Z,103693.38
2019-02-23T10:27:48.784Z,103690.59
2019-02-23T10:30:22.052Z,103686.23
2019-02-23T10:32:55.274Z,103685.48
2019-02-23T10:35:28.519Z,103685.89
2019-02-23T10:38:01.772Z,103682.51
2019-02-23T10:40:35.030Z,103683.76
2019-02-23T10:43:08.271Z,103685.67
2019-02-23T10:45:41.522Z,103690.26
2019-02-23T10:48:14.762Z,103689.42
2019-02-23T10:50:48.017Z,103685.06
2019-02-23T10:53:21.256Z,103682.70
2019-02-23T10:55:54.503Z,103683.53
2019-02-23T10:58:27.741Z,103685.20
2019-02-23T11:01:02.074Z,103688.69
2019-02-23T11:03:35.385Z,103681.58
2019-02-23T11:06:08.666Z,103687.29
2019-02-23T11:08:41.904Z,103675.17
2019-02-23T11:11:15.219Z,103676.18
2019-02-23T11:13:48.391Z,103669.09
2019-02-23T11:16:21.650Z,103670.75
2019-02-23T11:18:54.897Z,103667.37
2019-02-23T11:21:28.147Z,103659.61
2019-02-23T11:24:01.390Z,103664.52
2019-02-23T11:26:34.639Z,103657.38
2019-02-23T11:29:07.878Z,103651.96
2019-02-23T11:31:41.124Z,103648.43
2019-02-23T11:34:14.355Z,103644.95
2019-02-23T11:36:47.888Z,103645.83
2019-02-23T11:39:21.122Z,103643.69
2019-02-23T11:41:54.369Z,103637.61
2019-02-23T11:44:27.683Z,103633.54
2019-02-23T11:47:00.930Z,103632.23
2019-02-23T11:49:34.166Z,103634.42
2019-02-23T11:52:07.441Z,103632.14
2019-02-23T11:54:40.652Z,103638.17
2019-02-23T11:57:13.902Z,103638.17
2019-02-23T11:59:47.139Z,103640.19
2019-02-23T12:02:20.384Z,103638.64
2019-02-23T12:04:53.627Z,103632.14
2019-02-23T12:07:26.865Z,103629.30
2019-02-23T12:10:00.331Z,103632.36
2019-02-23T12:12:33.537Z,103627.41
2019-02-23T12:15:07.710Z,103625.17
2019-02-23T12:17:40.972Z,103625.22
2019-02-23T12:20:14.206Z,103620.53
2019-02-23T12:22:47.458Z,103626.94
2019-02-23T12:25:20.692Z,103619.98
2019-02-23T12:27:53.955Z,103621.65
2019-02-23T12:30:27.194Z,103618.09
2019-02-23T12:33:00.432Z,103613.82
2019-02-23T12:35:33.669Z,103608.95
2019-02-23T12:38:06.918Z,103615.83
2019-02-23T12:40:40.155Z,103609.41
2019-02-23T12:43:13.401Z,103602.31
2019-02-23T12:45:46.642Z,103603.11
2019-02-23T12:48:19.881Z,103599.25
2019-02-23T12:50:53.113Z,103596.06
2019-02-23T12:53:26.356Z,103597.16
2019-02-23T12:56:00.557Z,103593.55
2019-02-23T12:58:33.799Z,103588.63
2019-02-23T13:01:07.031Z,103588.96
2019-02-23T13:03:40.288Z,103580.11
2019-02-23T13:06:13.525Z,103532.52
2019-02-23T13:09:09.890Z,103572.59
2019-02-23T13:11:49.305Z,103566.56
2019-02-23T13:14:40.175Z,103565.22
2019-02-23T13:17:28.752Z,103562.63
2019-02-23T13:20:31.744Z,103558.21
2019-02-23T13:23:31.093Z,103557.32
2019-02-23T13:26:33.035Z,103552.41
2019-02-23T13:29:21.389Z,103552.74
2019-02-23T13:32:14.560Z,103547.44
2019-02-23T13:35:19.938Z,103553.53
2019-02-23T13:38:02.121Z,103548.75
2019-02-23T13:40:59.605Z,103554.19
2019-02-23T13:43:41.789Z,103551.59
2019-02-23T13:46:26.928Z,103549.45
2019-02-23T13:49:21.343Z,103540.16
2019-02-23T13:51:57.827Z,103545.00
2019-02-23T13:54:43.224Z,103546.34
2019-02-23T13:57:35.991Z,103546.39
2019-02-23T14:00:21.267Z,103548.98
2019-02-23T14:03:23.694Z,103537.57
2019-02-23T14:06:02.857Z,103544.63
2019-02-23T14:08:42.264Z,103536.73
2019-02-23T14:11:35.644Z,103538.87
2019-02-23T14:14:21.318Z,103531.95
2019-02-23T14:17:25.935Z,103530.95
2019-02-23T14:20:21.525Z,103525.88
2019-02-23T14:23:31.522Z,103527.93
2019-02-23T14:26:08.022Z,103531.31
2019-02-23T14:28:44.528Z,103526.48
2019-02-23T14:31:38.924Z,103531.13
2019-02-23T14:34:23.745Z,103527.19
2019-02-23T14:37:05.944Z,103536.73
2019-02-23T14:39:45.197Z,103533.30
2019-02-23T14:42:27.504Z,103531.86
2019-02-23T14:45:18.896Z,103533.44
2019-02-23T14:48:01.351Z,103531.64
2019-02-23T14:50:54.786Z,103538.04
2019-02-23T14:53:43.127Z,103524.60
2019-02-23T14:56:31.602Z,103525.89
2019-02-23T14:59:32.587Z,103520.84
2019-02-23T15:02:31.633Z,103525.70
2019-02-23T15:05:13.676Z,103527.16
2019-02-23T15:07:50.183Z,103532.56
2019-02-23T15:10:29.588Z,103522.07
2019-02-23T15:13:26.799Z,103526.27
2019-02-23T15:16:21.144Z,103526.59
2019-02-23T15:19:18.144Z,103529.14
2019-02-23T15:22:14.569Z,103516.66
2019-02-23T15:24:53.649Z,103516.55
2019-02-23T15:27:49.734Z,103507.37
2019-02-23T15:30:35.098Z,103508.42
2019-02-23T15:33:14.346Z,103507.77
2019-02-23T15:35:56.388Z,103500.80
2019-02-23T15:38:44.632Z,103508.44
2019-02-23T15:41:42.540Z,103505.67
2019-02-23T15:44:52.003Z,103502.61
2019-02-23T15:47:51.274Z,103501.86
2019-02-23T15:50:24.516Z,103506.77
2019-02-23T15:52:57.729Z,103512.70
2019-02-23T15:55:30.953Z,103508.50
2019-02-23T15:58:04.194Z,103506.94
2019-02-23T16:00:37.439Z,103507.14
2019-02-23T16:03:10.681Z,103508.20
2019-02-23T16:05:43.912Z,103500.45
2019-02-23T16:08:17.155Z,103508.97
2019-02-23T16:10:50.381Z,103506.00
2019-02-23T16:13:23.638Z,103511.09
2019-02-23T16:15:56.873Z,103514.92
2019-02-23T16:18:30.119Z,103515.92
2019-02-23T16:21:03.353Z,103524.41
2019-02-23T16:23:36.590Z,103515.25
2019-02-23T16:26:09.822Z,103523.98
2019-02-23T16:28:43.052Z,103517.70
2019-02-23T16:31:16.276Z,103508.31
2019-02-23T16:33:49.607Z,103517.53
2019-02-23T16:36:22.840Z,103513.94
2019-02-23T16:38:56.083Z,103518.20
2019-02-23T16:41:30.280Z,103512.84
2019-02-23T16:44:03.527Z,103509.06
2019-02-23T16:46:36.753Z,103513.38
2019-02-23T16:49:10.002Z,103517.74
2019-02-23T16:51:43.319Z,103518.41
2019-02-23T16:54:16.618Z,103512.66
2019-02-23T16:56:49.816Z,103520.88
2019-02-23T16:59:23.047Z,103522.52
2019-02-23T17:01:56.285Z,103518.20
2019-02-23T17:04:29.514Z,103517.33
2019-02-23T17:07:02.756Z,103513.94
2019-02-23T17:09:35.981Z,103507.72
2019-02-23T17:12:09.229Z,103508.34
2019-02-23T17:14:42.624Z,103514.00
2019-02-23T17:17:15.790Z,103510.27
2019-02-23T17:19:49.023Z,103508.07
2019-02-23T17:22:22.273Z,103502.84
2019-02-23T17:24:55.508Z,103505.38
2019-02-23T17:27:36.215Z,103509.53
2019-02-23T17:30:05.695Z,103507.30
2019-02-23T17:32:38.964Z,103500.67
2019-02-23T17:35:12.132Z,103513.12
2019-02-23T17:37:45.376Z,103512.78
2019-02-23T17:40:18.913Z,103513.48
2019-02-23T17:42:52.170Z,103511.55
2019-02-23T17:45:25.400Z,103513.64
2019-02-23T17:47:58.649Z,103504.79
2019-02-23T17:50:31.881Z,103512.91
2019-02-23T17:53:05.121Z,103510.47
2019-02-23T17:55:38.353Z,103508.12
2019-02-23T17:58:11.605Z,103510.62
2019-02-23T18:00:44.835Z,103519.25
2019-02-23T18:03:18.082Z,103514.98
2019-02-23T18:05:51.309Z,103504.59
2019-02-23T18:08:24.557Z,103510.77
2019-02-23T18:10:57.780Z,103512.14
2019-02-23T18:13:31.016Z,103511.68
2019-02-23T18:16:04.252Z,103506.35
2019-02-23T18:18:37.495Z,103508.91
2019-02-23T18:21:10.732Z,103505.71
2019-02-23T18:23:43.985Z,103495.18
2019-02-23T18:26:21.091Z,103505.94
2019-02-23T18:28:52.152Z,103497.64
2019-02-23T18:31:25.689Z,103499.03
2019-02-23T18:33:58.937Z,103498.95
2019-02-23T18:36:32.179Z,103492.31
2019-02-23T18:39:05.429Z,103499.55
2019-02-23T18:41:40.284Z,103496.44
2019-02-23T18:44:13.533Z,103503.72
2019-02-23T18:46:46.772Z,103500.98
2019-02-23T18:49:20.019Z,103501.88
2019-02-23T18:51:53.256Z,103506.31
2019-02-23T18:54:26.497Z,103506.78
2019-02-23T18:56:59.727Z,103508.08
2019-02-23T18:59:32.973Z,103497.17
2019-02-23T19:02:06.215Z,103495.75
2019-02-23T19:04:39.466Z,103500.29
2019-02-23T19:07:12.699Z,103499.83
2019-02-23T19:09:45.936Z,103502.89
2019-02-23T19:12:19.167Z,103488.69
2019-02-23T19:14:52.419Z,103493.56
2019-02-23T19:17:25.654Z,103488.89
2019-02-23T19:19:58.914Z,103489.91
2019-02-23T19:22:33.217Z,103486.56
2019-02-23T19:25:08.592Z,103485.81
2019-02-23T19:27:41.831Z,103490.17
2019-02-23T19:30:15.068Z,103491.84
2019-02-23T19:32:48.470Z,103496.58
2019-02-23T19:35:21.713Z,103497.78
2019-02-23T19:37:54.940Z,103500.23
2019-02-23T19:40:28.198Z,103498.11
2019-02-23T19:43:01.430Z,103498.63
2019-02-23T19:45:34.947Z,103500.05
2019-02-23T19:48:08.177Z,103502.28
2019-02-23T19:50:44.956Z,103505.58
2019-02-23T19:53:18.191Z,103500.28
2019-02-23T19:55:51.438Z,103502.84
2019-02-23T19:58:24.669Z,103505.84
2019-02-23T20:00:57.921Z,103500.98
2019-02-23T20:03:31.155Z,103499.17
2019-02-23T20:06:04.417Z,103497.46
2019-02-23T20:08:37.720Z,103502.28
2019-02-23T20:11:11.032Z,103498.06
2019-02-23T20:13:44.275Z,103501.27
2019-02-23T20:16:18.184Z,103503.11
2019-02-23T20:18:51.404Z,103505.86
2019-02-23T20:21:24.649Z,103507.33
2019-02-23T20:23:57.884Z,103510.62
2019-02-23T20:26:31.128Z,103518.46
2019-02-23T20:29:04.364Z,103525.28
2019-02-23T20:31:37.613Z,103523.02
2019-02-23T20:34:10.840Z,103519.48
2019-02-23T20:36:44.077Z,103522.87
2019-02-23T20:39:17.311Z,103523.28
2019-02-23T20:41:50.569Z,103522.91
2019-02-23T20:44:23.794Z,103522.55
2019-02-23T20:46:58.663Z,103527.79
2019-02-23T20:49:32.062Z,103527.92
2019-02-23T20:52:05.309Z,103525.00
2019-02-23T20:54:38.548Z,103524.58
2019-02-23T20:57:14.089Z,103527.09
2019-02-23T20:59:48.048Z,103526.58
2019-02-23T21:02:21.481Z,103533.82
2019-02-23T21:04:57.034Z,103525.09
2019-02-23T21:07:30.298Z,103532.80
2019-02-23T21:10:05.932Z,103531.95
2019-02-23T21:12:39.172Z,103537.66
2019-02-23T21:15:12.411Z,103536.47
2019-02-23T21:17:45.738Z,103545.55
2019-02-23T21:20:18.971Z,103541.65
2019-02-23T21:22:52.221Z,103544.66
2019-02-23T21:25:25.456Z,103542.85
2019-02-23T21:27:58.700Z,103539.29
2019-02-23T21:30:32.906Z,103542.26
2019-02-23T21:33:08.950Z,103535.12
2019-02-23T21:35:42.185Z,103536.59
2019-02-23T21:38:15.428Z,103535.77
2019-02-23T21:40:48.652Z,103537.70
2019-02-23T21:43:21.917Z,103531.25
2019-02-23T21:45:55.153Z,103532.51
2019-02-23T21:48:28.397Z,103529.03
2019-02-23T21:51:01.638Z,103529.73
2019-02-23T21:53:35.945Z,103527.87
2019-02-23T21:56:09.191Z,103529.59
2019-02-23T21:58:42.440Z,103527.28
2019-02-23T22:01:15.679Z,103478.49
2019-02-23T22:03:48.919Z,103529.70
2019-02-23T22:06:22.225Z,103531.83
2019-02-23T22:08:55.465Z,103528.25
2019-02-23T22:11:28.695Z,103525.52
2019-02-23T22:14:02.905Z,103529.08
2019-02-23T22:16:36.131Z,103532.38
2019-02-23T22:19:09.388Z,103531.40
2019-02-23T22:21:42.613Z,103534.98
2019-02-23T22:24:15.874Z,103533.73
2019-02-23T22:26:49.102Z,103487.71
2019-02-23T22:29:22.352Z,103531.34
2019-02-23T22:31:55.581Z,103534.33
2019-02-23T22:34:28.832Z,103534.64
2019-02-23T22:37:02.064Z,103541.45
2019-02-23T22:39:35.308Z,103543.96
2019-02-23T22:42:08.546Z,103544.23
2019-02-23T22:44:41.792Z,103546.63
2019-02-23T22:47:15.027Z,103543.84
2019-02-23T22:49:49.256Z,103547.59
2019-02-23T22:52:22.489Z,103546.05
2019-02-23T22:54:55.744Z,103544.64
2019-02-23T22:57:28.974Z,103546.22
2019-02-23T23:00:02.483Z,103543.77
2019-02-23T23:02:38.174Z,103547.66
2019-02-23T23:05:11.702Z,103546.46
2019-02-23T23:07:44.942Z,103539.50
2019-02-23T23:10:18.181Z,103544.09
2019-02-23T23:12:51.408Z,103543.88
2019-02-23T23:15:24.649Z,103536.42
2019-02-23T23:17:57.881Z,103533.77
2019-02-23T23:20:31.123Z,103532.42
2019-02-23T23:23:04.358Z,103529.60
2019-02-23T23:25:38.589Z,103527.42
2019-02-23T23:28:11.817Z,103518.34
2019-02-23T23:30:45.068Z,103520.47
2019-02-23T23:33:18.293Z,103523.28
2019-02-23T23:35:51.547Z,103515.17
2019-02-23T23:38:25.754Z,103516.94
2019-02-23T23:40:58.996Z,103522.81
2019-02-23T23:43:32.230Z,103523.64
2019-02-23T23:46:05.487Z,103519.28
2019-02-23T23:48:38.720Z,103524.37
2019-02-23T23:51:11.973Z,103520.39
2019-02-23T23:53:45.206Z,103515.61
2019-02-23T23:56:18.463Z,103518.71
2019-02-23T23:58:51.698Z,103519.92
